createdAt,value
2022-11-15T00:00:56.406Z,96023.94
2022-11-15T00:03:25.089Z,96012.94
2022-11-15T00:05:51.950Z,96018.84
2022-11-15T00:08:18.955Z,96017.84
2022-11-15T00:10:56.193Z,96026.56
2022-11-15T00:13:22.542Z,96018.41
2022-11-15T00:15:48.902Z,96025.75
2022-11-15T00:18:16.630Z,96021.31
2022-11-15T00:20:43.703Z,96017.03
2022-11-15T00:23:10.373Z,96022.66
2022-11-15T00:25:37.141Z,96019.41
2022-11-15T00:28:03.716Z,96017.16
2022-11-15T00:30:30.626Z,96017.94
2022-11-15T00:32:57.369Z,96024.84
2022-11-15T00:35:23.783Z,96020.84
2022-11-15T00:37:50.513Z,96015.56
2022-11-15T00:40:17.017Z,96014.75
2022-11-15T00:42:43.826Z,96010.31
2022-11-15T00:45:10.822Z,96001.41
2022-11-15T00:47:37.163Z,96005.41
2022-11-15T00:50:04.715Z,95999.63
2022-11-15T00:52:31.078Z,95994.91
2022-11-15T00:54:57.393Z,95984.66
2022-11-15T00:57:24.346Z,95985.84
2022-11-15T00:59:51.243Z,95970.69
2022-11-15T01:02:17.997Z,95978.44
2022-11-15T01:04:44.422Z,95970.63
2022-11-15T01:07:10.923Z,95962.72
2022-11-15T01:09:37.778Z,95967.00
2022-11-15T01:12:04.419Z,95961.72
2022-11-15T01:14:30.727Z,95959.78
2022-11-15T01:16:57.462Z,95962.56
2022-11-15T01:19:23.882Z,95956.47
2022-11-15T01:21:51.113Z,95952.66
2022-11-15T01:24:17.863Z,95952.03
2022-11-15T01:26:44.415Z,95948.50
2022-11-15T01:29:10.720Z,95949.06
2022-11-15T01:31:37.501Z,95940.06
2022-11-15T01:34:03.809Z,95939.38
2022-11-15T01:36:30.163Z,95939.56
2022-11-15T01:39:00.053Z,95949.06
2022-11-15T01:41:30.737Z,95952.38
2022-11-15T01:44:19.105Z,95937.22
2022-11-15T01:46:49.378Z,95939.09
2022-11-15T01:49:20.214Z,95944.63
2022-11-15T01:51:47.204Z,95938.97
2022-11-15T01:54:16.957Z,95945.25
2022-11-15T01:57:11.796Z,95944.50
2022-11-15T01:59:40.722Z,95929.59
2022-11-15T02:02:07.503Z,95935.47
2022-11-15T02:04:39.159Z,95930.50
2022-11-15T02:07:07.662Z,95927.78
2022-11-15T02:09:34.118Z,95923.22
2022-11-15T02:12:01.262Z,95919.34
2022-11-15T02:14:29.421Z,95912.38
2022-11-15T02:17:08.017Z,95911.09
2022-11-15T02:19:34.285Z,95911.28
2022-11-15T02:22:23.833Z,95911.66
2022-11-15T02:25:04.621Z,95921.16
2022-11-15T02:27:54.979Z,95921.06
2022-11-15T02:30:42.298Z,95927.34
2022-11-15T02:33:19.901Z,95925.53
2022-11-15T02:36:01.526Z,95919.34
2022-11-15T02:38:58.920Z,95902.56
2022-11-15T02:41:32.505Z,95912.31
2022-11-15T02:44:14.092Z,95897.09
2022-11-15T02:47:02.121Z,95892.09
2022-11-15T02:49:32.932Z,95881.31
2022-11-15T02:51:59.260Z,95900.41
2022-11-15T02:54:29.423Z,95891.25
2022-11-15T02:57:01.770Z,95889.97
2022-11-15T02:59:33.926Z,95893.94
2022-11-15T03:02:58.088Z,95886.75
2022-11-15T03:05:52.235Z,95890.44
2022-11-15T03:08:24.871Z,95885.91
2022-11-15T03:11:09.923Z,95885.94
2022-11-15T03:13:45.589Z,95880.69
2022-11-15T03:16:20.914Z,95887.47
2022-11-15T03:19:06.062Z,95882.69
2022-11-15T03:21:35.551Z,95884.34
2022-11-15T03:24:06.745Z,95889.34
2022-11-15T03:26:36.206Z,95885.50
2022-11-15T03:29:28.943Z,95880.13
2022-11-15T03:32:01.906Z,95883.19
2022-11-15T03:34:43.971Z,95884.41
2022-11-15T03:37:14.098Z,95882.66
2022-11-15T03:39:40.593Z,95886.63
2022-11-15T03:42:16.475Z,95891.22
2022-11-15T03:44:53.567Z,95897.75
2022-11-15T03:47:48.885Z,95891.41
2022-11-15T03:50:19.022Z,95894.88
2022-11-15T03:52:50.897Z,95895.00
2022-11-15T03:55:20.589Z,95883.75
2022-11-15T03:57:52.414Z,95884.91
2022-11-15T04:00:18.896Z,95878.88
2022-11-15T04:02:45.423Z,95881.19
2022-11-15T04:05:12.316Z,95872.31
2022-11-15T04:07:38.627Z,95871.34
2022-11-15T04:10:08.643Z,95870.25
2022-11-15T04:12:38.234Z,95864.69
2022-11-15T04:15:08.244Z,95867.50
2022-11-15T04:17:43.856Z,95860.94
2022-11-15T04:20:44.227Z,95861.63
2022-11-15T04:23:36.587Z,95850.47
2022-11-15T04:26:16.861Z,95859.66
2022-11-15T04:29:02.334Z,95862.78
2022-11-15T04:31:29.351Z,95858.38
2022-11-15T04:33:55.740Z,95862.28
2022-11-15T04:36:41.559Z,95850.81
2022-11-15T04:39:08.218Z,95849.16
2022-11-15T04:41:34.650Z,95846.09
2022-11-15T04:44:01.629Z,95843.66
2022-11-15T04:46:28.230Z,95837.59
2022-11-15T04:48:58.901Z,95839.75
2022-11-15T04:51:25.730Z,95840.06
2022-11-15T04:53:52.053Z,95839.25
2022-11-15T04:56:18.929Z,95839.94
2022-11-15T04:58:45.238Z,95835.84
2022-11-15T05:01:15.401Z,95832.88
2022-11-15T05:04:01.349Z,95830.22
2022-11-15T05:06:27.793Z,95824.34
2022-11-15T05:08:54.491Z,95814.81
2022-11-15T05:11:22.360Z,95815.75
2022-11-15T05:13:48.769Z,95821.75
2022-11-15T05:16:15.119Z,95816.94
2022-11-15T05:18:42.195Z,95821.75
2022-11-15T05:21:13.959Z,95821.81
2022-11-15T05:23:41.387Z,95822.19
2022-11-15T05:26:09.812Z,95820.34
2022-11-15T05:28:37.620Z,95822.75
2022-11-15T05:31:12.981Z,95815.47
2022-11-15T05:33:40.862Z,95806.78
2022-11-15T05:36:22.891Z,95803.22
2022-11-15T05:38:50.725Z,95803.16
2022-11-15T05:41:21.635Z,95800.38
2022-11-15T05:43:50.026Z,95808.53
2022-11-15T05:46:16.759Z,95803.94
2022-11-15T05:48:49.590Z,95804.69
2022-11-15T05:51:18.113Z,95806.81
2022-11-15T05:53:45.981Z,95805.50
2022-11-15T05:56:13.778Z,95800.47
2022-11-15T05:58:40.493Z,95802.69
2022-11-15T06:01:06.907Z,95799.56
2022-11-15T06:03:33.497Z,95798.63
2022-11-15T06:06:00.344Z,95786.16
2022-11-15T06:08:26.655Z,95789.78
2022-11-15T06:10:52.980Z,95804.16
2022-11-15T06:13:19.935Z,95801.75
2022-11-15T06:15:46.259Z,95800.16
2022-11-15T06:18:12.645Z,95801.47
2022-11-15T06:20:39.335Z,95790.91
2022-11-15T06:23:06.158Z,95795.16
2022-11-15T06:25:32.598Z,95798.72
2022-11-15T06:27:59.978Z,95798.38
2022-11-15T06:30:27.264Z,95801.28
2022-11-15T06:33:01.655Z,95798.75
2022-11-15T06:35:28.434Z,95797.31
2022-11-15T06:37:54.744Z,95795.56
2022-11-15T06:40:21.540Z,95786.59
2022-11-15T06:42:48.287Z,95794.09
2022-11-15T06:45:14.666Z,95793.53
2022-11-15T06:47:47.645Z,95795.34
2022-11-15T06:50:14.781Z,95800.81
2022-11-15T06:52:41.092Z,95797.19
2022-11-15T06:55:08.299Z,95797.25
2022-11-15T06:57:34.981Z,95798.50
2022-11-15T07:00:01.630Z,95792.00
2022-11-15T07:02:27.945Z,95795.25
2022-11-15T07:04:54.613Z,95791.63
2022-11-15T07:07:21.004Z,95781.84
2022-11-15T07:09:47.348Z,95783.31
2022-11-15T07:12:14.255Z,95788.66
2022-11-15T07:14:40.618Z,95786.13
2022-11-15T07:17:07.015Z,95777.72
2022-11-15T07:19:33.791Z,95773.34
2022-11-15T07:22:00.139Z,95777.06
2022-11-15T07:24:26.454Z,95777.75
2022-11-15T07:26:53.643Z,95781.97
2022-11-15T07:29:19.984Z,95785.19
2022-11-15T07:31:46.296Z,95788.97
2022-11-15T07:34:13.159Z,95783.66
2022-11-15T07:36:39.490Z,95779.81
2022-11-15T07:39:05.788Z,95784.56
2022-11-15T07:41:32.513Z,95767.00
2022-11-15T07:43:59.417Z,95764.53
2022-11-15T07:46:25.723Z,95766.97
2022-11-15T07:48:52.549Z,95768.63
2022-11-15T07:51:19.556Z,95773.31
2022-11-15T07:53:45.878Z,95771.31
2022-11-15T07:56:13.253Z,95767.22
2022-11-15T07:58:39.777Z,95767.78
2022-11-15T08:01:08.434Z,95774.22
2022-11-15T08:03:35.853Z,95768.97
2022-11-15T08:06:02.973Z,95767.06
2022-11-15T08:08:29.378Z,95754.03
2022-11-15T08:10:55.743Z,95761.44
2022-11-15T08:13:22.266Z,95756.94
2022-11-15T08:15:53.442Z,95748.78
2022-11-15T08:18:22.695Z,95745.31
2022-11-15T08:20:49.370Z,95743.91
2022-11-15T08:23:15.687Z,95745.28
2022-11-15T08:25:42.391Z,95742.34
2022-11-15T08:28:11.412Z,95738.78
2022-11-15T08:30:42.478Z,95739.81
2022-11-15T08:33:13.937Z,95726.94
2022-11-15T08:35:44.319Z,95720.16
2022-11-15T08:38:11.231Z,95719.16
2022-11-15T08:40:38.649Z,95708.28
2022-11-15T08:43:05.518Z,95707.38
2022-11-15T08:45:34.879Z,95703.34
2022-11-15T08:48:04.625Z,95706.78
2022-11-15T08:50:31.103Z,95704.56
2022-11-15T08:52:57.959Z,95698.38
2022-11-15T08:55:24.908Z,95703.72
2022-11-15T08:57:51.677Z,95693.03
2022-11-15T09:00:18.673Z,95696.69
2022-11-15T09:02:44.979Z,95712.38
2022-11-15T09:05:11.306Z,95700.72
2022-11-15T09:07:37.981Z,95701.00
2022-11-15T09:10:05.058Z,95699.34
2022-11-15T09:12:31.857Z,95707.94
2022-11-15T09:14:59.341Z,95710.78
2022-11-15T09:17:25.674Z,95712.31
2022-11-15T09:19:52.456Z,95718.09
2022-11-15T09:22:19.115Z,95716.94
2022-11-15T09:24:45.877Z,95707.28
2022-11-15T09:27:13.409Z,95701.47
2022-11-15T09:29:39.898Z,95699.28
2022-11-15T09:32:06.850Z,95695.84
2022-11-15T09:34:33.172Z,95702.03
2022-11-15T09:36:59.551Z,95687.03
2022-11-15T09:39:26.275Z,95683.66
2022-11-15T09:42:02.375Z,95682.84
2022-11-15T09:44:57.295Z,95681.38
2022-11-15T09:47:39.439Z,95675.31
2022-11-15T09:50:12.385Z,95685.69
2022-11-15T09:52:42.374Z,95672.78
2022-11-15T09:55:14.685Z,95674.63
2022-11-15T09:58:05.011Z,95674.34
2022-11-15T10:00:47.025Z,95673.31
2022-11-15T10:03:38.307Z,95671.53
2022-11-15T10:06:07.681Z,95675.34
2022-11-15T10:08:46.371Z,95665.06
2022-11-15T10:11:38.197Z,95670.00
2022-11-15T10:14:18.986Z,95665.97
2022-11-15T10:17:03.894Z,95665.75
2022-11-15T10:19:37.599Z,95659.94
2022-11-15T10:22:39.422Z,95653.34
2022-11-15T10:25:20.727Z,95639.84
2022-11-15T10:28:25.302Z,95629.31
2022-11-15T10:30:54.802Z,95623.13
2022-11-15T10:33:38.030Z,95621.28
2022-11-15T10:36:10.315Z,95615.84
2022-11-15T10:38:49.207Z,95606.44
2022-11-15T10:41:31.163Z,95592.63
2022-11-15T10:44:10.859Z,95589.19
2022-11-15T10:46:46.695Z,95591.03
2022-11-15T10:49:23.517Z,95585.91
2022-11-15T10:51:56.137Z,95585.81
2022-11-15T10:54:29.195Z,95577.28
2022-11-15T10:56:59.278Z,95575.13
2022-11-15T10:59:33.704Z,95569.44
2022-11-15T11:02:24.463Z,95566.22
2022-11-15T11:04:52.064Z,95558.94
2022-11-15T11:07:31.174Z,95560.66
2022-11-15T11:10:01.352Z,95565.75
2022-11-15T11:12:31.565Z,95561.00
2022-11-15T11:15:02.532Z,95559.59
2022-11-15T11:17:37.503Z,95562.28
2022-11-15T11:20:16.091Z,95560.75
2022-11-15T11:23:01.682Z,95573.09
2022-11-15T11:25:43.938Z,95568.59
2022-11-15T11:28:19.793Z,95563.72
2022-11-15T11:31:08.017Z,95550.69
2022-11-15T11:33:46.166Z,95550.41
2022-11-15T11:36:37.197Z,95553.28
2022-11-15T11:39:30.848Z,95544.03
2022-11-15T11:42:44.250Z,95545.53
2022-11-15T11:45:10.930Z,95539.16
2022-11-15T11:47:41.729Z,95541.00
2022-11-15T11:50:21.309Z,95538.81
2022-11-15T11:52:59.542Z,95529.00
2022-11-15T11:55:42.957Z,95535.13
2022-11-15T11:58:18.310Z,95527.38
2022-11-15T12:00:52.772Z,95522.66
2022-11-15T12:03:37.919Z,95521.84
2022-11-15T12:06:51.418Z,95520.59
2022-11-15T12:09:42.599Z,95517.34
2022-11-15T12:12:27.609Z,95519.47
2022-11-15T12:15:17.379Z,95526.47
2022-11-15T12:17:44.516Z,95515.72
2022-11-15T12:20:23.774Z,95510.41
2022-11-15T12:23:14.859Z,95515.38
2022-11-15T12:25:49.322Z,95507.19
2022-11-15T12:28:48.595Z,95514.91
2022-11-15T12:31:40.028Z,95504.19
2022-11-15T12:34:21.681Z,95506.94
2022-11-15T12:36:50.169Z,95501.28
2022-11-15T12:39:17.849Z,95506.16
2022-11-15T12:41:56.698Z,95501.41
2022-11-15T12:44:32.504Z,95511.34
2022-11-15T12:46:58.760Z,95503.38
2022-11-15T12:49:25.027Z,95501.53
2022-11-15T12:51:53.212Z,95498.03
2022-11-15T12:54:22.568Z,95494.19
2022-11-15T12:57:04.783Z,95494.44
2022-11-15T12:59:51.038Z,95494.75
2022-11-15T13:02:23.466Z,95486.78
2022-11-15T13:04:51.139Z,95487.22
2022-11-15T13:07:35.870Z,95483.53
2022-11-15T13:10:27.924Z,95480.47
2022-11-15T13:13:00.562Z,95476.78
2022-11-15T13:16:02.168Z,95480.47
2022-11-15T13:18:32.082Z,95477.97
2022-11-15T13:21:02.353Z,95466.56
2022-11-15T13:23:29.354Z,95464.69
2022-11-15T13:26:07.019Z,95465.84
2022-11-15T13:28:36.678Z,95469.56
2022-11-15T13:31:22.788Z,95469.31
2022-11-15T13:33:49.472Z,95473.66
2022-11-15T13:36:24.353Z,95472.53
2022-11-15T13:39:13.654Z,95466.88
2022-11-15T13:41:49.829Z,95464.00
2022-11-15T13:44:22.878Z,95462.22
2022-11-15T13:46:49.292Z,95471.84
2022-11-15T13:49:15.839Z,95461.34
2022-11-15T13:51:49.886Z,95464.66
2022-11-15T13:54:24.815Z,95455.69
2022-11-15T13:56:56.780Z,95447.78
2022-11-15T13:59:28.095Z,95449.38
2022-11-15T14:01:56.673Z,95443.06
2022-11-15T14:04:26.200Z,95437.56
2022-11-15T14:06:58.780Z,95434.25
2022-11-15T14:09:37.554Z,95437.38
2022-11-15T14:12:23.167Z,95431.16
2022-11-15T14:14:49.541Z,95431.97
2022-11-15T14:17:31.561Z,95436.56
2022-11-15T14:19:59.041Z,95428.16
2022-11-15T14:22:30.224Z,95435.34
2022-11-15T14:25:16.518Z,95435.34
2022-11-15T14:27:45.348Z,95435.47
2022-11-15T14:30:18.567Z,95431.38
2022-11-15T14:32:50.269Z,95421.00
2022-11-15T14:35:19.751Z,95422.06
2022-11-15T14:37:46.562Z,95425.28
2022-11-15T14:40:15.570Z,95417.88
2022-11-15T14:42:43.149Z,95415.72
2022-11-15T14:45:20.690Z,95415.03
2022-11-15T14:47:48.010Z,95409.16
2022-11-15T14:50:16.695Z,95401.88
2022-11-15T14:52:43.647Z,95404.75
2022-11-15T14:55:24.636Z,95388.34
2022-11-15T14:57:53.244Z,95391.91
2022-11-15T15:00:20.070Z,95391.78
2022-11-15T15:02:47.530Z,95387.66
2022-11-15T15:05:15.113Z,95380.84
2022-11-15T15:07:41.647Z,95373.34
2022-11-15T15:10:38.360Z,95374.25
2022-11-15T15:12:55.230Z,95367.34
2022-11-15T15:15:26.701Z,95365.25
2022-11-15T15:17:53.185Z,95365.94
2022-11-15T15:20:19.549Z,95370.44
2022-11-15T15:22:46.369Z,95357.63
2022-11-15T15:25:34.455Z,95356.50
2022-11-15T15:28:01.617Z,95354.13
2022-11-15T15:30:31.007Z,95350.75
2022-11-15T15:32:57.656Z,95339.22
2022-11-15T15:35:30.198Z,95348.38
2022-11-15T15:37:56.538Z,95351.84
2022-11-15T15:40:24.961Z,95355.97
2022-11-15T15:42:51.685Z,95345.06
2022-11-15T15:45:19.137Z,95343.91
2022-11-15T15:47:47.075Z,95348.09
2022-11-15T15:50:25.447Z,95347.03
2022-11-15T15:52:54.121Z,95349.34
2022-11-15T15:55:21.090Z,95334.69
2022-11-15T15:57:48.355Z,95337.50
2022-11-15T16:00:15.542Z,95332.66
2022-11-15T16:02:42.609Z,95343.34
2022-11-15T16:05:10.135Z,95329.44
2022-11-15T16:07:36.578Z,95330.53
2022-11-15T16:10:14.458Z,95327.47
2022-11-15T16:12:40.837Z,95320.63
2022-11-15T16:15:08.594Z,95310.25
2022-11-15T16:17:39.646Z,95308.63
2022-11-15T16:20:06.880Z,95308.25
2022-11-15T16:22:33.256Z,95294.66
2022-11-15T16:24:59.841Z,95292.91
2022-11-15T16:27:26.186Z,95293.75
2022-11-15T16:29:52.568Z,95294.72
2022-11-15T16:32:19.305Z,95296.31
2022-11-15T16:34:49.047Z,95292.44
2022-11-15T16:37:25.939Z,95298.47
2022-11-15T16:39:55.896Z,95299.72
2022-11-15T16:42:23.507Z,95304.88
2022-11-15T16:44:50.354Z,95299.28
2022-11-15T16:47:20.293Z,95294.31
2022-11-15T16:49:47.236Z,95296.63
2022-11-15T16:52:17.603Z,95297.06
2022-11-15T16:54:47.421Z,95295.75
2022-11-15T16:57:13.721Z,95290.25
2022-11-15T16:59:40.484Z,95294.16
2022-11-15T17:02:12.608Z,95289.63
2022-11-15T17:04:39.499Z,95282.09
2022-11-15T17:07:06.767Z,95283.84
2022-11-15T17:09:34.213Z,95281.19
2022-11-15T17:12:01.020Z,95278.63
2022-11-15T17:14:27.414Z,95288.09
2022-11-15T17:16:56.137Z,95288.09
2022-11-15T17:19:22.927Z,95294.78
2022-11-15T17:21:49.601Z,95292.94
2022-11-15T17:24:17.136Z,95292.72
2022-11-15T17:26:43.881Z,95278.69
2022-11-15T17:29:10.281Z,95280.09
2022-11-15T17:31:37.494Z,95275.41
2022-11-15T17:34:06.039Z,95272.41
2022-11-15T17:36:32.404Z,95264.00
2022-11-15T17:38:59.876Z,95267.81
2022-11-15T17:41:28.096Z,95266.38
2022-11-15T17:43:58.195Z,95265.00
2022-11-15T17:46:24.698Z,95254.56
2022-11-15T17:48:51.643Z,95257.28
2022-11-15T17:51:18.785Z,95245.59
2022-11-15T17:53:46.962Z,95247.91
2022-11-15T17:56:19.193Z,95244.38
2022-11-15T17:58:57.295Z,95242.50
2022-11-15T18:01:32.480Z,95245.44
2022-11-15T18:04:01.826Z,95236.28
2022-11-15T18:06:33.072Z,95226.59
2022-11-15T18:08:59.786Z,95233.44
2022-11-15T18:11:33.329Z,95230.28
2022-11-15T18:14:05.092Z,95228.00
2022-11-15T18:16:34.131Z,95229.63
2022-11-15T18:19:00.497Z,95232.47
2022-11-15T18:21:29.539Z,95229.66
2022-11-15T18:23:58.889Z,95224.81
2022-11-15T18:26:27.444Z,95222.59
2022-11-15T18:28:57.733Z,95218.31
2022-11-15T18:31:27.290Z,95210.22
2022-11-15T18:33:54.213Z,95211.03
2022-11-15T18:36:22.077Z,95206.53
2022-11-15T18:38:48.811Z,95207.34
2022-11-15T18:41:20.577Z,95202.78
2022-11-15T18:43:51.415Z,95194.09
2022-11-15T18:46:23.081Z,95194.88
2022-11-15T18:48:51.750Z,95204.69
2022-11-15T18:51:20.186Z,95198.59
2022-11-15T18:53:47.288Z,95191.47
2022-11-15T18:56:17.200Z,95191.69
2022-11-15T18:58:46.029Z,95190.50
2022-11-15T19:01:18.021Z,95188.47
2022-11-15T19:03:47.843Z,95184.63
2022-11-15T19:06:18.006Z,95186.94
2022-11-15T19:08:46.694Z,95183.75
2022-11-15T19:11:23.986Z,95191.25
2022-11-15T19:14:03.792Z,95179.13
2022-11-15T19:16:33.177Z,95176.50
2022-11-15T19:19:02.421Z,95173.66
2022-11-15T19:21:31.488Z,95181.22
2022-11-15T19:23:59.170Z,95170.84
2022-11-15T19:26:27.061Z,95166.31
2022-11-15T19:28:56.410Z,95164.19
2022-11-15T19:31:24.279Z,95157.69
2022-11-15T19:33:52.484Z,95165.56
2022-11-15T19:36:21.941Z,95159.00
2022-11-15T19:38:48.489Z,95158.09
2022-11-15T19:41:17.561Z,95161.38
2022-11-15T19:43:44.437Z,95156.81
2022-11-15T19:46:12.237Z,95147.13
2022-11-15T19:48:38.733Z,95142.38
2022-11-15T19:51:12.333Z,95146.81
2022-11-15T19:53:39.364Z,95145.50
2022-11-15T19:56:11.003Z,95136.88
2022-11-15T19:58:37.939Z,95129.09
2022-11-15T20:01:18.282Z,95129.56
2022-11-15T20:03:45.333Z,95126.75
2022-11-15T20:06:15.713Z,95127.09
2022-11-15T20:08:43.295Z,95134.84
2022-11-15T20:11:10.588Z,95136.03
2022-11-15T20:13:36.897Z,95130.09
2022-11-15T20:16:03.467Z,95131.69
2022-11-15T20:18:30.903Z,95125.06
2022-11-15T20:20:58.370Z,95123.25
2022-11-15T20:23:26.933Z,95128.75
2022-11-15T20:25:53.871Z,95128.28
2022-11-15T20:28:23.227Z,95124.63
2022-11-15T20:30:53.636Z,95119.94
2022-11-15T20:33:22.406Z,95100.66
2022-11-15T20:35:49.561Z,95106.00
2022-11-15T20:38:16.977Z,95099.50
2022-11-15T20:40:47.678Z,95102.75
2022-11-15T20:43:17.632Z,95099.91
2022-11-15T20:45:45.622Z,95094.72
2022-11-15T20:48:15.839Z,95089.88
2022-11-15T20:50:44.256Z,95087.22
2022-11-15T20:53:13.263Z,95061.44
2022-11-15T20:55:47.955Z,95056.03
2022-11-15T20:58:15.666Z,95057.22
2022-11-15T21:00:43.123Z,95064.97
2022-11-15T21:03:09.558Z,95070.75
2022-11-15T21:05:41.587Z,95081.16
2022-11-15T21:08:08.925Z,95072.41
2022-11-15T21:10:54.608Z,95062.97
2022-11-15T21:13:21.770Z,95057.84
2022-11-15T21:15:48.218Z,95055.47
2022-11-15T21:18:16.102Z,95040.06
2022-11-15T21:20:42.858Z,95042.88
2022-11-15T21:23:09.972Z,95032.78
2022-11-15T21:25:36.927Z,95027.44
2022-11-15T21:28:03.415Z,95026.56
2022-11-15T21:30:30.052Z,95029.31
2022-11-15T21:32:57.023Z,95021.97
2022-11-15T21:35:23.796Z,95024.19
2022-11-15T21:37:56.068Z,95021.22
2022-11-15T21:40:24.378Z,95016.25
2022-11-15T21:42:50.703Z,95010.38
2022-11-15T21:45:18.435Z,95012.41
2022-11-15T21:47:46.591Z,95011.81
2022-11-15T21:50:13.747Z,95009.94
2022-11-15T21:52:41.041Z,95007.56
2022-11-15T21:55:08.326Z,95006.41
2022-11-15T21:57:34.754Z,95001.06
2022-11-15T22:00:20.250Z,94998.19
2022-11-15T22:02:46.572Z,94991.84
2022-11-15T22:05:13.541Z,94997.41
2022-11-15T22:07:39.945Z,94998.25
2022-11-15T22:10:06.662Z,95005.91
2022-11-15T22:12:33.437Z,94999.00
2022-11-15T22:14:59.760Z,95000.69
2022-11-15T22:17:46.746Z,94998.25
2022-11-15T22:20:37.747Z,94996.06
2022-11-15T22:23:01.703Z,94995.19
2022-11-15T22:25:28.381Z,94990.19
2022-11-15T22:27:54.828Z,94980.66
2022-11-15T22:30:22.229Z,94982.28
2022-11-15T22:32:48.570Z,94967.47
2022-11-15T22:35:14.952Z,94963.03
2022-11-15T22:37:41.997Z,94955.00
2022-11-15T22:40:09.211Z,94949.84
2022-11-15T22:42:35.568Z,94950.16
2022-11-15T22:45:02.257Z,94944.94
2022-11-15T22:47:28.585Z,94944.44
2022-11-15T22:49:54.914Z,94955.13
2022-11-15T22:52:21.828Z,94948.41
2022-11-15T22:54:48.182Z,94938.38
2022-11-15T22:57:14.496Z,94944.97
2022-11-15T22:59:42.718Z,94938.59
2022-11-15T23:02:09.248Z,94943.13
2022-11-15T23:04:35.607Z,94938.28
2022-11-15T23:07:01.952Z,94927.28
2022-11-15T23:09:28.337Z,94930.66
2022-11-15T23:12:13.378Z,94934.38
2022-11-15T23:14:39.843Z,94934.16
2022-11-15T23:17:06.219Z,94928.75
2022-11-15T23:19:32.989Z,94923.94
2022-11-15T23:22:18.741Z,94924.66
2022-11-15T23:24:45.070Z,94929.41
2022-11-15T23:27:15.068Z,94927.16
2022-11-15T23:30:00.585Z,94931.69
2022-11-15T23:32:45.243Z,94920.16
2022-11-15T23:35:11.977Z,94925.41
2022-11-15T23:37:38.412Z,94919.09
2022-11-15T23:40:05.860Z,94918.84
2022-11-15T23:42:32.195Z,94916.59
2022-11-15T23:44:58.502Z,94909.25
2022-11-15T23:47:25.430Z,94913.63
2022-11-15T23:49:51.751Z,94915.25
2022-11-15T23:52:18.157Z,94909.97
2022-11-15T23:54:45.010Z,94903.16
2022-11-15T23:57:12.320Z,94906.63
2022-11-15T23:59:40.716Z,94903.31
